sensor_id;sensor_type;location;lat;lon;timestamp;pressure;altitude;pressure_sealevel;temperature;humidity
3082;BME280;1551;51.046;7.010;2023-08-06T00:00:22;99789.81;;;17.58;86.19
3082;BME280;1551;51.046;7.010;2023-08-06T00:03:11;99785.47;;;17.58;86.23
3082;BME280;1551;51.046;7.010;2023-08-06T00:06:00;99777.94;;;17.54;86.38
3082;BME280;1551;51.046;7.010;2023-08-06T00:08:49;99752.72;;;17.42;86.51
3082;BME280;1551;51.046;7.010;2023-08-06T00:11:38;99773.00;;;17.49;86.60
3082;BME280;1551;51.046;7.010;2023-08-06T00:14:27;99776.00;;;17.42;86.48
3082;BME280;1551;51.046;7.010;2023-08-06T00:17:16;99774.47;;;17.38;86.86
3082;BME280;1551;51.046;7.010;2023-08-06T00:20:06;99760.53;;;17.25;87.54
3082;BME280;1551;51.046;7.010;2023-08-06T00:22:55;99759.00;;;17.21;87.22
3082;BME280;1551;51.046;7.010;2023-08-06T00:25:44;99760.81;;;17.18;87.65
3082;BME280;1551;51.046;7.010;2023-08-06T00:28:33;99767.06;;;17.14;87.85
3082;BME280;1551;51.046;7.010;2023-08-06T00:31:22;99764.50;;;17.14;88.15
3082;BME280;1551;51.046;7.010;2023-08-06T00:34:11;99765.56;;;17.10;88.08
3082;BME280;1551;51.046;7.010;2023-08-06T00:37:00;99766.78;;;17.03;88.28
3082;BME280;1551;51.046;7.010;2023-08-06T00:39:49;99767.88;;;16.99;88.91
3082;BME280;1551;51.046;7.010;2023-08-06T00:42:38;99758.81;;;16.91;88.79
3082;BME280;1551;51.046;7.010;2023-08-06T00:45:27;99770.84;;;16.92;88.68
3082;BME280;1551;51.046;7.010;2023-08-06T00:48:16;99760.56;;;16.90;89.07
3082;BME280;1551;51.046;7.010;2023-08-06T00:51:05;99767.78;;;16.84;88.96
3082;BME280;1551;51.046;7.010;2023-08-06T00:53:55;99767.03;;;16.82;89.40
3082;BME280;1551;51.046;7.010;2023-08-06T00:56:45;99767.13;;;16.80;89.20
3082;BME280;1551;51.046;7.010;2023-08-06T00:59:35;99769.47;;;16.85;89.74
3082;BME280;1551;51.046;7.010;2023-08-06T01:02:24;99767.75;;;16.85;89.53
3082;BME280;1551;51.046;7.010;2023-08-06T01:05:13;99769.41;;;16.86;89.73
3082;BME280;1551;51.046;7.010;2023-08-06T01:08:18;99768.50;;;16.87;89.89
3082;BME280;1551;51.046;7.010;2023-08-06T01:11:21;99765.81;;;16.89;90.04
3082;BME280;1551;51.046;7.010;2023-08-06T01:14:25;99754.81;;;16.85;89.89
3082;BME280;1551;51.046;7.010;2023-08-06T01:17:17;99745.38;;;16.84;90.58
3082;BME280;1551;51.046;7.010;2023-08-06T01:20:07;99747.13;;;16.84;90.48
3082;BME280;1551;51.046;7.010;2023-08-06T01:22:56;99740.22;;;16.84;90.59
3082;BME280;1551;51.046;7.010;2023-08-06T01:25:52;99743.50;;;16.88;90.30
3082;BME280;1551;51.046;7.010;2023-08-06T01:31:37;99738.97;;;16.91;90.53
3082;BME280;1551;51.046;7.010;2023-08-06T01:34:28;99728.88;;;16.87;90.27
3082;BME280;1551;51.046;7.010;2023-08-06T01:37:19;99735.66;;;16.89;90.33
3082;BME280;1551;51.046;7.010;2023-08-06T01:40:13;99720.44;;;16.83;90.53
3082;BME280;1551;51.046;7.010;2023-08-06T01:43:02;99735.03;;;16.84;90.75
3082;BME280;1551;51.046;7.010;2023-08-06T01:45:51;99724.94;;;16.80;91.02
3082;BME280;1551;51.046;7.010;2023-08-06T01:48:40;99720.38;;;16.85;90.91
3082;BME280;1551;51.046;7.010;2023-08-06T01:51:29;99724.09;;;16.79;91.49
3082;BME280;1551;51.046;7.010;2023-08-06T01:54:18;99723.50;;;16.74;91.19
3082;BME280;1551;51.046;7.010;2023-08-06T01:57:07;99725.31;;;16.72;91.39
3082;BME280;1551;51.046;7.010;2023-08-06T01:59:56;99714.38;;;16.67;91.30
3082;BME280;1551;51.046;7.010;2023-08-06T02:02:46;99708.91;;;16.56;91.77
3082;BME280;1551;51.046;7.010;2023-08-06T02:05:35;99715.69;;;16.59;92.22
3082;BME280;1551;51.046;7.010;2023-08-06T02:08:24;99709.00;;;16.55;92.37
3082;BME280;1551;51.046;7.010;2023-08-06T02:11:13;99708.84;;;16.58;92.57
3082;BME280;1551;51.046;7.010;2023-08-06T02:14:02;99705.44;;;16.57;92.64
3082;BME280;1551;51.046;7.010;2023-08-06T02:16:51;99696.00;;;16.56;92.31
3082;BME280;1551;51.046;7.010;2023-08-06T02:19:40;99702.09;;;16.55;92.68
3082;BME280;1551;51.046;7.010;2023-08-06T02:22:28;99692.66;;;16.54;92.56
3082;BME280;1551;51.046;7.010;2023-08-06T02:25:17;99699.53;;;16.55;93.30
3082;BME280;1551;51.046;7.010;2023-08-06T02:28:06;99703.06;;;16.70;93.41
3082;BME280;1551;51.046;7.010;2023-08-06T02:30:55;99702.66;;;16.77;93.44
3082;BME280;1551;51.046;7.010;2023-08-06T02:33:44;99703.19;;;16.84;93.16
3082;BME280;1551;51.046;7.010;2023-08-06T02:36:33;99690.88;;;16.89;92.82
3082;BME280;1551;51.046;7.010;2023-08-06T02:39:22;99697.47;;;16.94;92.10
3082;BME280;1551;51.046;7.010;2023-08-06T02:42:11;99694.44;;;16.86;91.90
3082;BME280;1551;51.046;7.010;2023-08-06T02:45:00;99689.88;;;16.91;91.54
3082;BME280;1551;51.046;7.010;2023-08-06T02:47:52;99694.94;;;16.93;91.23
3082;BME280;1551;51.046;7.010;2023-08-06T02:50:41;99688.78;;;16.95;91.38
3082;BME280;1551;51.046;7.010;2023-08-06T02:53:30;99680.88;;;16.98;91.10
3082;BME280;1551;51.046;7.010;2023-08-06T02:56:23;99681.56;;;17.02;90.94
3082;BME280;1551;51.046;7.010;2023-08-06T02:59:21;99671.16;;;17.03;91.30
3082;BME280;1551;51.046;7.010;2023-08-06T03:02:22;99667.81;;;17.01;90.91
3082;BME280;1551;51.046;7.010;2023-08-06T03:05:19;99661.72;;;17.02;90.46
3082;BME280;1551;51.046;7.010;2023-08-06T03:08:10;99659.31;;;16.99;90.43
3082;BME280;1551;51.046;7.010;2023-08-06T03:11:00;99668.56;;;17.03;90.49
3082;BME280;1551;51.046;7.010;2023-08-06T03:13:49;99663.13;;;17.08;90.10
3082;BME280;1551;51.046;7.010;2023-08-06T03:16:39;99662.31;;;17.07;90.12
3082;BME280;1551;51.046;7.010;2023-08-06T03:19:29;99666.38;;;17.11;89.99
3082;BME280;1551;51.046;7.010;2023-08-06T03:22:19;99653.56;;;17.10;89.97
3082;BME280;1551;51.046;7.010;2023-08-06T03:25:09;99654.97;;;17.15;90.23
3082;BME280;1551;51.046;7.010;2023-08-06T03:27:59;99654.00;;;17.18;89.76
3082;BME280;1551;51.046;7.010;2023-08-06T03:30:58;99655.97;;;17.13;89.72
3082;BME280;1551;51.046;7.010;2023-08-06T03:33:48;99656.56;;;17.18;89.73
3082;BME280;1551;51.046;7.010;2023-08-06T03:36:41;99649.81;;;17.15;89.64
3082;BME280;1551;51.046;7.010;2023-08-06T03:39:30;99652.22;;;17.18;89.84
3082;BME280;1551;51.046;7.010;2023-08-06T03:42:19;99652.91;;;17.22;89.57
3082;BME280;1551;51.046;7.010;2023-08-06T03:45:08;99658.16;;;17.21;89.48
3082;BME280;1551;51.046;7.010;2023-08-06T03:47:59;99662.66;;;17.17;89.65
3082;BME280;1551;51.046;7.010;2023-08-06T03:50:48;99656.81;;;17.13;89.83
3082;BME280;1551;51.046;7.010;2023-08-06T03:53:38;99660.41;;;17.11;90.51
3082;BME280;1551;51.046;7.010;2023-08-06T03:56:27;99652.66;;;17.11;91.02
3082;BME280;1551;51.046;7.010;2023-08-06T03:59:17;99654.88;;;17.01;91.48
3082;BME280;1551;51.046;7.010;2023-08-06T04:02:07;99653.59;;;16.93;91.56
3082;BME280;1551;51.046;7.010;2023-08-06T04:04:56;99655.94;;;16.97;92.03
3082;BME280;1551;51.046;7.010;2023-08-06T04:07:46;99652.69;;;16.94;92.32
3082;BME280;1551;51.046;7.010;2023-08-06T04:10:34;99648.28;;;16.96;92.87
3082;BME280;1551;51.046;7.010;2023-08-06T04:13:23;99643.09;;;16.96;92.78
3082;BME280;1551;51.046;7.010;2023-08-06T04:16:12;99658.47;;;16.99;93.32
3082;BME280;1551;51.046;7.010;2023-08-06T04:19:03;99660.13;;;17.00;93.51
3082;BME280;1551;51.046;7.010;2023-08-06T04:21:52;99653.03;;;16.88;93.67
3082;BME280;1551;51.046;7.010;2023-08-06T04:24:42;99647.25;;;16.83;93.96
3082;BME280;1551;51.046;7.010;2023-08-06T04:27:31;99653.78;;;16.90;93.74
3082;BME280;1551;51.046;7.010;2023-08-06T04:30:20;99649.50;;;16.89;94.21
3082;BME280;1551;51.046;7.010;2023-08-06T04:33:09;99650.25;;;16.91;94.72
3082;BME280;1551;51.046;7.010;2023-08-06T04:35:59;99655.53;;;16.89;94.59
3082;BME280;1551;51.046;7.010;2023-08-06T04:38:49;99649.41;;;16.90;94.86
3082;BME280;1551;51.046;7.010;2023-08-06T04:41:39;99651.78;;;16.95;94.89
3082;BME280;1551;51.046;7.010;2023-08-06T04:44:29;99653.69;;;16.91;94.65
3082;BME280;1551;51.046;7.010;2023-08-06T04:47:18;99653.94;;;16.87;95.27
3082;BME280;1551;51.046;7.010;2023-08-06T04:50:07;99644.59;;;16.84;95.19
3082;BME280;1551;51.046;7.010;2023-08-06T04:52:56;99642.69;;;16.88;95.77
3082;BME280;1551;51.046;7.010;2023-08-06T04:55:45;99656.97;;;16.95;95.56
3082;BME280;1551;51.046;7.010;2023-08-06T04:58:34;99645.38;;;17.02;95.58
3082;BME280;1551;51.046;7.010;2023-08-06T05:01:22;99651.38;;;17.02;95.67
3082;BME280;1551;51.046;7.010;2023-08-06T05:04:11;99646.03;;;17.05;95.99
3082;BME280;1551;51.046;7.010;2023-08-06T05:07:00;99659.31;;;17.15;95.67
3082;BME280;1551;51.046;7.010;2023-08-06T05:09:49;99657.38;;;17.18;95.59
3082;BME280;1551;51.046;7.010;2023-08-06T05:12:38;99657.22;;;17.22;95.54
3082;BME280;1551;51.046;7.010;2023-08-06T05:15:27;99652.06;;;17.22;95.05
3082;BME280;1551;51.046;7.010;2023-08-06T05:18:16;99653.66;;;17.24;95.09
3082;BME280;1551;51.046;7.010;2023-08-06T05:21:05;99649.16;;;17.28;95.06
3082;BME280;1551;51.046;7.010;2023-08-06T05:23:54;99644.63;;;17.31;94.85
3082;BME280;1551;51.046;7.010;2023-08-06T05:26:43;99651.31;;;17.35;94.92
3082;BME280;1551;51.046;7.010;2023-08-06T05:29:35;99658.16;;;17.36;94.59
3082;BME280;1551;51.046;7.010;2023-08-06T05:32:24;99663.84;;;17.43;94.72
3082;BME280;1551;51.046;7.010;2023-08-06T05:35:13;99667.25;;;17.43;94.74
3082;BME280;1551;51.046;7.010;2023-08-06T05:38:02;99660.94;;;17.49;94.63
3082;BME280;1551;51.046;7.010;2023-08-06T05:40:51;99660.72;;;17.53;94.62
3082;BME280;1551;51.046;7.010;2023-08-06T05:43:40;99659.50;;;17.59;94.39
3082;BME280;1551;51.046;7.010;2023-08-06T05:46:29;99668.72;;;17.64;94.05
3082;BME280;1551;51.046;7.010;2023-08-06T05:49:17;99668.03;;;17.61;93.97
3082;BME280;1551;51.046;7.010;2023-08-06T05:52:06;99668.28;;;17.56;93.87
3082;BME280;1551;51.046;7.010;2023-08-06T05:54:57;99673.56;;;17.55;93.32
3082;BME280;1551;51.046;7.010;2023-08-06T05:57:46;99676.03;;;17.56;93.35
3082;BME280;1551;51.046;7.010;2023-08-06T06:00:35;99670.63;;;17.61;93.87
3082;BME280;1551;51.046;7.010;2023-08-06T06:03:24;99670.63;;;17.61;93.89
3082;BME280;1551;51.046;7.010;2023-08-06T06:06:13;99673.41;;;17.58;94.02
3082;BME280;1551;51.046;7.010;2023-08-06T06:09:02;99675.28;;;17.54;93.89
3082;BME280;1551;51.046;7.010;2023-08-06T06:11:51;99670.34;;;17.65;94.31
3082;BME280;1551;51.046;7.010;2023-08-06T06:14:40;99680.13;;;17.76;94.19
3082;BME280;1551;51.046;7.010;2023-08-06T06:17:29;99680.22;;;17.74;93.58
3082;BME280;1551;51.046;7.010;2023-08-06T06:20:18;99680.03;;;17.77;93.26
3082;BME280;1551;51.046;7.010;2023-08-06T06:23:07;99687.91;;;17.76;92.92
3082;BME280;1551;51.046;7.010;2023-08-06T06:25:56;99681.81;;;17.77;93.20
3082;BME280;1551;51.046;7.010;2023-08-06T06:28:45;99692.47;;;17.86;93.20
3082;BME280;1551;51.046;7.010;2023-08-06T06:31:34;99691.03;;;17.97;92.90
3082;BME280;1551;51.046;7.010;2023-08-06T06:34:23;99690.63;;;18.04;92.53
3082;BME280;1551;51.046;7.010;2023-08-06T06:37:12;99693.84;;;18.08;92.49
3082;BME280;1551;51.046;7.010;2023-08-06T06:40:01;99691.00;;;18.12;92.23
3082;BME280;1551;51.046;7.010;2023-08-06T06:42:49;99694.91;;;18.19;92.29
3082;BME280;1551;51.046;7.010;2023-08-06T06:45:38;99697.06;;;18.27;92.45
3082;BME280;1551;51.046;7.010;2023-08-06T06:48:30;99691.03;;;18.26;91.82
3082;BME280;1551;51.046;7.010;2023-08-06T06:51:20;99691.81;;;18.28;91.76
3082;BME280;1551;51.046;7.010;2023-08-06T06:54:08;99690.72;;;18.32;91.86
3082;BME280;1551;51.046;7.010;2023-08-06T06:56:57;99696.25;;;18.40;91.46
3082;BME280;1551;51.046;7.010;2023-08-06T06:59:46;99701.97;;;18.47;90.92
3082;BME280;1551;51.046;7.010;2023-08-06T07:02:35;99696.00;;;18.61;90.51
3082;BME280;1551;51.046;7.010;2023-08-06T07:05:24;99699.72;;;18.71;89.75
3082;BME280;1551;51.046;7.010;2023-08-06T07:08:13;99696.00;;;18.75;89.27
3082;BME280;1551;51.046;7.010;2023-08-06T07:11:03;99699.34;;;18.77;89.17
3082;BME280;1551;51.046;7.010;2023-08-06T07:13:57;99702.31;;;18.71;89.10
3082;BME280;1551;51.046;7.010;2023-08-06T07:16:49;99691.66;;;18.61;89.27
3082;BME280;1551;51.046;7.010;2023-08-06T07:19:38;99698.75;;;18.58;89.17
3082;BME280;1551;51.046;7.010;2023-08-06T07:22:27;99700.72;;;18.68;89.43
3082;BME280;1551;51.046;7.010;2023-08-06T07:25:16;99703.31;;;18.68;88.98
3082;BME280;1551;51.046;7.010;2023-08-06T07:28:05;99707.19;;;18.61;89.74
3082;BME280;1551;51.046;7.010;2023-08-06T07:30:54;99716.75;;;18.75;89.03
3082;BME280;1551;51.046;7.010;2023-08-06T07:33:43;99702.66;;;18.65;88.29
3082;BME280;1551;51.046;7.010;2023-08-06T07:36:32;99711.13;;;18.52;89.35
3082;BME280;1551;51.046;7.010;2023-08-06T07:39:21;99711.28;;;18.65;89.68
3082;BME280;1551;51.046;7.010;2023-08-06T07:42:11;99708.53;;;18.82;89.20
3082;BME280;1551;51.046;7.010;2023-08-06T07:45:01;99718.34;;;18.91;88.72
3082;BME280;1551;51.046;7.010;2023-08-06T07:47:51;99712.97;;;19.08;88.68
3082;BME280;1551;51.046;7.010;2023-08-06T07:50:39;99713.44;;;19.15;88.57
3082;BME280;1551;51.046;7.010;2023-08-06T07:53:28;99710.56;;;19.19;88.54
3082;BME280;1551;51.046;7.010;2023-08-06T07:56:20;99717.88;;;19.27;88.04
3082;BME280;1551;51.046;7.010;2023-08-06T07:59:10;99721.00;;;19.32;87.76
3082;BME280;1551;51.046;7.010;2023-08-06T08:02:00;99715.09;;;19.30;87.36
3082;BME280;1551;51.046;7.010;2023-08-06T08:09:06;99721.56;;;19.23;86.51
3082;BME280;1551;51.046;7.010;2023-08-06T08:11:55;99726.97;;;19.34;86.41
3082;BME280;1551;51.046;7.010;2023-08-06T08:14:44;99726.44;;;19.43;85.74
3082;BME280;1551;51.046;7.010;2023-08-06T08:21:51;99735.78;;;19.60;85.48
3082;BME280;1551;51.046;7.010;2023-08-06T08:25:05;99726.69;;;19.53;85.21
3082;BME280;1551;51.046;7.010;2023-08-06T08:27:54;99732.25;;;19.47;85.07
3082;BME280;1551;51.046;7.010;2023-08-06T08:30:43;99736.53;;;19.48;84.65
3082;BME280;1551;51.046;7.010;2023-08-06T08:33:32;99734.41;;;19.40;85.27
3082;BME280;1551;51.046;7.010;2023-08-06T08:36:25;99743.94;;;19.40;85.49
3082;BME280;1551;51.046;7.010;2023-08-06T08:39:14;99742.00;;;19.43;85.74
3082;BME280;1551;51.046;7.010;2023-08-06T08:42:03;99747.78;;;19.33;86.48
3082;BME280;1551;51.046;7.010;2023-08-06T08:48:35;99747.94;;;19.45;86.79
3082;BME280;1551;51.046;7.010;2023-08-06T08:51:26;99753.28;;;19.56;87.33
3082;BME280;1551;51.046;7.010;2023-08-06T08:54:16;99745.19;;;19.75;86.32
3082;BME280;1551;51.046;7.010;2023-08-06T08:57:06;99766.38;;;19.96;85.96
3082;BME280;1551;51.046;7.010;2023-08-06T08:59:55;99757.72;;;19.68;85.75
3082;BME280;1551;51.046;7.010;2023-08-06T09:02:44;99761.63;;;19.47;86.37
3082;BME280;1551;51.046;7.010;2023-08-06T09:05:33;99758.38;;;19.58;86.54
3082;BME280;1551;51.046;7.010;2023-08-06T09:08:27;99770.03;;;19.65;87.29
3082;BME280;1551;51.046;7.010;2023-08-06T09:11:18;99770.69;;;19.68;87.00
3082;BME280;1551;51.046;7.010;2023-08-06T09:14:11;99772.00;;;19.61;87.24
3082;BME280;1551;51.046;7.010;2023-08-06T09:21:45;99777.50;;;19.43;88.43
3082;BME280;1551;51.046;7.010;2023-08-06T09:24:38;99774.72;;;19.60;88.06
3082;BME280;1551;51.046;7.010;2023-08-06T09:27:27;99780.50;;;19.77;87.32
3082;BME280;1551;51.046;7.010;2023-08-06T09:30:49;99777.38;;;20.13;86.41
3082;BME280;1551;51.046;7.010;2023-08-06T09:33:38;99788.31;;;20.45;86.11
3082;BME280;1551;51.046;7.010;2023-08-06T09:36:27;99789.22;;;20.71;85.07
3082;BME280;1551;51.046;7.010;2023-08-06T09:39:18;99787.38;;;20.98;83.51
3082;BME280;1551;51.046;7.010;2023-08-06T09:42:07;99789.78;;;21.39;82.49
3082;BME280;1551;51.046;7.010;2023-08-06T09:45:05;99788.69;;;21.79;80.76
3082;BME280;1551;51.046;7.010;2023-08-06T09:47:58;99800.84;;;22.27;79.60
3082;BME280;1551;51.046;7.010;2023-08-06T09:50:48;99793.88;;;22.86;77.55
3082;BME280;1551;51.046;7.010;2023-08-06T09:53:39;99801.50;;;23.46;75.45
3082;BME280;1551;51.046;7.010;2023-08-06T09:56:29;99797.13;;;24.23;72.40
3082;BME280;1551;51.046;7.010;2023-08-06T09:59:19;99806.84;;;24.43;68.81
3082;BME280;1551;51.046;7.010;2023-08-06T10:02:12;99817.25;;;23.89;67.48
3082;BME280;1551;51.046;7.010;2023-08-06T10:05:02;99812.84;;;23.23;68.22
3082;BME280;1551;51.046;7.010;2023-08-06T10:07:51;99830.00;;;22.09;71.19
3082;BME280;1551;51.046;7.010;2023-08-06T10:10:41;99822.97;;;20.97;74.17
3082;BME280;1551;51.046;7.010;2023-08-06T10:13:32;99840.56;;;20.54;76.89
3082;BME280;1551;51.046;7.010;2023-08-06T10:16:22;99831.31;;;19.81;78.43
3082;BME280;1551;51.046;7.010;2023-08-06T10:19:13;99834.72;;;19.26;80.37
3082;BME280;1551;51.046;7.010;2023-08-06T10:22:13;99844.91;;;19.14;82.50
3082;BME280;1551;51.046;7.010;2023-08-06T10:25:03;99840.97;;;18.93;83.52
3082;BME280;1551;51.046;7.010;2023-08-06T10:27:56;99847.47;;;18.71;84.38
3082;BME280;1551;51.046;7.010;2023-08-06T10:30:46;99845.25;;;18.49;85.63
3082;BME280;1551;51.046;7.010;2023-08-06T10:33:41;99842.50;;;18.52;86.61
3082;BME280;1551;51.046;7.010;2023-08-06T10:36:32;99847.53;;;18.69;87.08
3082;BME280;1551;51.046;7.010;2023-08-06T10:39:21;99850.00;;;18.57;87.32
3082;BME280;1551;51.046;7.010;2023-08-06T10:42:22;99853.09;;;18.47;88.27
3082;BME280;1551;51.046;7.010;2023-08-06T10:49:32;99870.88;;;18.22;90.18
3082;BME280;1551;51.046;7.010;2023-08-06T10:52:22;99879.25;;;18.27;90.29
3082;BME280;1551;51.046;7.010;2023-08-06T10:55:11;99880.16;;;18.11;90.39
3082;BME280;1551;51.046;7.010;2023-08-06T10:57:59;99883.47;;;17.97;90.80
3082;BME280;1551;51.046;7.010;2023-08-06T11:00:48;99892.84;;;18.00;91.21
3082;BME280;1551;51.046;7.010;2023-08-06T11:03:38;99899.00;;;17.97;91.01
3082;BME280;1551;51.046;7.010;2023-08-06T11:06:27;99900.81;;;17.79;91.23
3082;BME280;1551;51.046;7.010;2023-08-06T11:09:16;99906.94;;;17.61;91.24
3082;BME280;1551;51.046;7.010;2023-08-06T11:12:11;99924.28;;;17.59;91.88
3082;BME280;1551;51.046;7.010;2023-08-06T11:15:01;99925.44;;;17.54;92.65
3082;BME280;1551;51.046;7.010;2023-08-06T11:17:52;99934.25;;;17.33;92.65
3082;BME280;1551;51.046;7.010;2023-08-06T11:20:40;99935.06;;;17.33;93.21
3082;BME280;1551;51.046;7.010;2023-08-06T11:23:30;99941.00;;;17.35;93.37
3082;BME280;1551;51.046;7.010;2023-08-06T11:26:20;99942.22;;;17.28;93.00
3082;BME280;1551;51.046;7.010;2023-08-06T11:29:09;99952.28;;;17.17;92.96
3082;BME280;1551;51.046;7.010;2023-08-06T11:32:05;99962.88;;;16.94;93.20
3082;BME280;1551;51.046;7.010;2023-08-06T11:34:55;99952.44;;;16.78;93.48
3082;BME280;1551;51.046;7.010;2023-08-06T11:37:45;99961.84;;;16.79;93.69
3082;BME280;1551;51.046;7.010;2023-08-06T11:40:35;99958.81;;;16.71;94.07
3082;BME280;1551;51.046;7.010;2023-08-06T11:43:24;99960.25;;;16.77;93.90
3082;BME280;1551;51.046;7.010;2023-08-06T11:46:13;99965.41;;;16.77;94.21
3082;BME280;1551;51.046;7.010;2023-08-06T11:49:02;99965.94;;;16.66;93.90
3082;BME280;1551;51.046;7.010;2023-08-06T11:51:51;99965.22;;;16.63;94.29
3082;BME280;1551;51.046;7.010;2023-08-06T11:54:40;99968.09;;;16.75;94.58
3082;BME280;1551;51.046;7.010;2023-08-06T11:57:30;99972.06;;;16.82;94.51
3082;BME280;1551;51.046;7.010;2023-08-06T12:00:24;99964.38;;;16.81;94.18
3082;BME280;1551;51.046;7.010;2023-08-06T12:03:14;99968.94;;;16.93;94.78
3082;BME280;1551;51.046;7.010;2023-08-06T12:06:07;99969.53;;;16.99;94.40
3082;BME280;1551;51.046;7.010;2023-08-06T12:08:56;99968.91;;;16.94;94.26
3082;BME280;1551;51.046;7.010;2023-08-06T12:11:45;99971.63;;;16.91;93.82
3082;BME280;1551;51.046;7.010;2023-08-06T12:14:36;99973.44;;;16.89;94.23
3082;BME280;1551;51.046;7.010;2023-08-06T12:17:26;99977.41;;;16.96;94.46
3082;BME280;1551;51.046;7.010;2023-08-06T12:20:15;99974.06;;;16.94;94.08
3082;BME280;1551;51.046;7.010;2023-08-06T12:23:04;99983.13;;;17.03;93.84
3082;BME280;1551;51.046;7.010;2023-08-06T12:25:53;99988.22;;;17.04;93.98
3082;BME280;1551;51.046;7.010;2023-08-06T12:28:42;99989.06;;;17.05;93.52
3082;BME280;1551;51.046;7.010;2023-08-06T12:31:31;99983.00;;;17.06;93.50
3082;BME280;1551;51.046;7.010;2023-08-06T12:34:20;99994.09;;;17.08;93.68
3082;BME280;1551;51.046;7.010;2023-08-06T12:37:09;100000.72;;;17.13;92.97
3082;BME280;1551;51.046;7.010;2023-08-06T12:39:58;99998.81;;;17.17;93.53
3082;BME280;1551;51.046;7.010;2023-08-06T12:42:47;100007.28;;;17.21;93.29
3082;BME280;1551;51.046;7.010;2023-08-06T12:45:37;100011.84;;;17.33;93.01
3082;BME280;1551;51.046;7.010;2023-08-06T12:48:26;100010.63;;;17.40;93.19
3082;BME280;1551;51.046;7.010;2023-08-06T12:51:15;100023.19;;;17.47;92.27
3082;BME280;1551;51.046;7.010;2023-08-06T12:54:04;100019.94;;;17.44;92.23
3082;BME280;1551;51.046;7.010;2023-08-06T12:56:53;100027.63;;;17.45;91.84
3082;BME280;1551;51.046;7.010;2023-08-06T12:59:42;100024.72;;;17.34;91.64
3082;BME280;1551;51.046;7.010;2023-08-06T13:02:31;100028.41;;;17.29;90.86
3082;BME280;1551;51.046;7.010;2023-08-06T13:05:20;100033.59;;;17.29;91.15
3082;BME280;1551;51.046;7.010;2023-08-06T13:08:09;100030.50;;;17.39;90.88
3082;BME280;1551;51.046;7.010;2023-08-06T13:10:58;100041.41;;;17.46;90.73
3082;BME280;1551;51.046;7.010;2023-08-06T13:13:46;100038.19;;;17.41;90.13
3082;BME280;1551;51.046;7.010;2023-08-06T13:16:37;100043.84;;;17.49;89.99
3082;BME280;1551;51.046;7.010;2023-08-06T13:19:27;100042.72;;;17.54;89.89
3082;BME280;1551;51.046;7.010;2023-08-06T13:22:17;100051.94;;;17.60;89.49
3082;BME280;1551;51.046;7.010;2023-08-06T13:25:06;100069.59;;;17.69;89.10
3082;BME280;1551;51.046;7.010;2023-08-06T13:27:55;100060.81;;;17.54;88.84
3082;BME280;1551;51.046;7.010;2023-08-06T13:30:45;100066.34;;;17.47;88.51
3082;BME280;1551;51.046;7.010;2023-08-06T13:33:34;100061.94;;;17.49;87.82
3082;BME280;1551;51.046;7.010;2023-08-06T13:36:23;100065.56;;;17.45;86.91
3082;BME280;1551;51.046;7.010;2023-08-06T13:39:12;100073.97;;;17.50;87.23
3082;BME280;1551;51.046;7.010;2023-08-06T13:42:01;100069.06;;;17.62;86.67
3082;BME280;1551;51.046;7.010;2023-08-06T13:44:50;100085.13;;;17.69;86.68
3082;BME280;1551;51.046;7.010;2023-08-06T13:47:39;100082.16;;;17.59;86.23
3082;BME280;1551;51.046;7.010;2023-08-06T13:50:28;100077.69;;;17.63;85.87
3082;BME280;1551;51.046;7.010;2023-08-06T13:53:18;100087.94;;;17.64;85.95
3082;BME280;1551;51.046;7.010;2023-08-06T13:56:07;100099.69;;;17.71;85.77
3082;BME280;1551;51.046;7.010;2023-08-06T13:58:58;100091.38;;;17.82;86.03
3082;BME280;1551;51.046;7.010;2023-08-06T14:01:47;100094.75;;;17.84;85.36
3082;BME280;1551;51.046;7.010;2023-08-06T14:04:36;100092.44;;;17.78;85.87
3082;BME280;1551;51.046;7.010;2023-08-06T14:07:26;100101.38;;;18.07;86.46
3082;BME280;1551;51.046;7.010;2023-08-06T14:10:15;100099.59;;;18.24;85.72
3082;BME280;1551;51.046;7.010;2023-08-06T14:13:03;100099.28;;;18.30;86.10
3082;BME280;1551;51.046;7.010;2023-08-06T14:15:52;100105.47;;;18.28;85.91
3082;BME280;1551;51.046;7.010;2023-08-06T14:18:42;100098.41;;;18.14;85.97
3082;BME280;1551;51.046;7.010;2023-08-06T14:21:30;100099.44;;;18.10;86.06
3082;BME280;1551;51.046;7.010;2023-08-06T14:24:19;100103.34;;;18.19;86.48
3082;BME280;1551;51.046;7.010;2023-08-06T14:27:08;100106.22;;;18.30;85.99
3082;BME280;1551;51.046;7.010;2023-08-06T14:29:57;100106.75;;;18.36;86.37
3082;BME280;1551;51.046;7.010;2023-08-06T14:32:46;100107.66;;;18.35;85.96
3082;BME280;1551;51.046;7.010;2023-08-06T14:35:35;100111.53;;;18.27;86.47
3082;BME280;1551;51.046;7.010;2023-08-06T14:38:24;100112.88;;;18.18;86.48
3082;BME280;1551;51.046;7.010;2023-08-06T14:41:13;100115.69;;;18.14;87.04
3082;BME280;1551;51.046;7.010;2023-08-06T14:44:02;100117.19;;;18.01;87.72
3082;BME280;1551;51.046;7.010;2023-08-06T14:46:51;100124.09;;;17.66;88.14
3082;BME280;1551;51.046;7.010;2023-08-06T14:49:40;100122.50;;;17.45;88.58
3082;BME280;1551;51.046;7.010;2023-08-06T14:52:29;100127.56;;;17.29;89.43
3082;BME280;1551;51.046;7.010;2023-08-06T14:55:25;100124.69;;;17.16;90.54
3082;BME280;1551;51.046;7.010;2023-08-06T14:58:14;100119.91;;;17.09;91.05
3082;BME280;1551;51.046;7.010;2023-08-06T15:01:03;100129.81;;;16.99;91.71
3082;BME280;1551;51.046;7.010;2023-08-06T15:03:52;100144.81;;;17.10;92.53
3082;BME280;1551;51.046;7.010;2023-08-06T15:06:41;100150.63;;;17.15;92.67
3082;BME280;1551;51.046;7.010;2023-08-06T15:09:30;100147.97;;;17.16;93.38
3082;BME280;1551;51.046;7.010;2023-08-06T15:12:19;100144.47;;;17.17;93.43
3082;BME280;1551;51.046;7.010;2023-08-06T15:15:09;100159.16;;;17.17;93.39
3082;BME280;1551;51.046;7.010;2023-08-06T15:17:58;100166.91;;;17.17;93.65
3082;BME280;1551;51.046;7.010;2023-08-06T15:20:47;100160.00;;;17.17;93.70
3082;BME280;1551;51.046;7.010;2023-08-06T15:23:36;100173.00;;;17.16;94.16
3082;BME280;1551;51.046;7.010;2023-08-06T15:26:25;100185.56;;;17.05;94.58
3082;BME280;1551;51.046;7.010;2023-08-06T15:29:14;100197.25;;;17.13;95.34
3082;BME280;1551;51.046;7.010;2023-08-06T15:32:03;100202.47;;;17.12;95.17
3082;BME280;1551;51.046;7.010;2023-08-06T15:34:53;100193.47;;;17.02;95.59
3082;BME280;1551;51.046;7.010;2023-08-06T15:37:42;100179.19;;;16.93;95.67
3082;BME280;1551;51.046;7.010;2023-08-06T15:40:31;100190.88;;;17.02;95.86
3082;BME280;1551;51.046;7.010;2023-08-06T15:43:20;100195.91;;;17.05;95.99
3082;BME280;1551;51.046;7.010;2023-08-06T15:46:09;100196.19;;;17.17;96.26